Time;durP1;ratioP1;P1;durP2;ratioP2;P2;SDS_P1;SDS_P2;PMS_P1;PMS_P2;Temp;Humidity;BMP_temperature;BMP_pressure;BME280_temperature;BME280_humidity;BME280_pressure;Samples;Min_cycle;Max_cycle;Signal;HPM_P1;HPM_P2
2022/08/29 00:02:04;;;;;;;1.93;1.60;;;16.40;96.30;;;;;;4990112;28;20175;-92
2022/08/29 00:04:29;;;;;;;8.30;1.80;;;16.30;96.40;;;;;;4967529;28;20210;-91
2022/08/29 00:06:55;;;;;;;2.70;1.60;;;16.30;96.40;;;;;;4985627;28;20518;-91
2022/08/29 00:09:21;;;;;;;1.77;1.50;;;16.30;96.40;;;;;;4975701;28;20206;-92
2022/08/29 00:11:47;;;;;;;1.50;1.40;;;16.20;96.60;;;;;;4990387;28;20909;-92
2022/08/29 00:14:12;;;;;;;6.33;1.83;;;16.20;96.70;;;;;;4977865;28;20778;-92
2022/08/29 00:16:38;;;;;;;1.20;1.10;;;16.20;96.60;;;;;;4980169;28;20262;-91
2022/08/29 00:19:04;;;;;;;6.00;2.90;;;16.20;96.80;;;;;;4990708;28;20191;-91
2022/08/29 00:21:29;;;;;;;10.90;1.53;;;16.20;96.60;;;;;;4974960;28;20645;-92
2022/08/29 00:23:55;;;;;;;1.10;1.00;;;16.20;96.70;;;;;;4989231;28;20188;-92
2022/08/29 00:26:20;;;;;;;2.03;1.50;;;16.20;97.30;;;;;;4990646;28;20198;-92
2022/08/29 00:28:46;;;;;;;1.60;1.50;;;16.20;97.30;;;;;;4973980;28;20202;-91
2022/08/29 00:31:11;;;;;;;5.63;2.07;;;16.20;97.30;;;;;;4974192;28;20230;-92
2022/08/29 00:33:37;;;;;;;1.40;1.30;;;16.20;97.30;;;;;;4986605;28;20271;-92
2022/08/29 00:36:03;;;;;;;1.00;1.00;;;16.20;97.30;;;;;;4982809;28;20232;-91
2022/08/29 00:38:28;;;;;;;2.40;1.37;;;16.30;97.30;;;;;;4977806;28;20244;-92
2022/08/29 00:40:56;;;;;;;3.80;1.37;;;16.30;97.30;;;;;;4973957;28;20230;-92
2022/08/29 00:43:28;;;;;;;1.83;1.33;;;16.20;97.30;;;;;;4976056;28;20613;-91
2022/08/29 00:46:17;;;;;;;5.13;2.00;;;16.20;97.30;;;;;;4983503;28;20536;-91
2022/08/29 00:48:45;;;;;;;2.30;2.00;;;16.10;97.30;;;;;;4973604;28;20887;-91
2022/08/29 00:51:16;;;;;;;1.33;1.20;;;16.10;97.30;;;;;;4975721;28;20425;-91
2022/08/29 00:53:44;;;;;;;3.67;1.93;;;16.10;97.30;;;;;;4968567;28;21002;-92
2022/08/29 00:56:13;;;;;;;2.50;2.30;;;16.10;97.30;;;;;;4992527;28;20436;-92
2022/08/29 00:58:50;;;;;;;3.80;1.47;;;16.10;97.30;;;;;;4992784;28;20476;-91
2022/08/29 01:01:15;;;;;;;2.33;2.13;;;16.10;97.30;;;;;;4977349;28;20425;-91
2022/08/29 01:03:41;;;;;;;2.03;1.73;;;16.10;97.30;;;;;;4973552;28;20940;-92
2022/08/29 01:06:08;;;;;;;1.30;1.20;;;16.10;97.30;;;;;;4986378;28;20190;-91
2022/08/29 01:08:34;;;;;;;1.30;1.20;;;16.00;97.30;;;;;;4983302;28;20452;-91
2022/08/29 01:13:47;;;;;;;1.90;1.80;;;15.90;97.30;;;;;;4986173;28;20825;-91
2022/08/29 01:16:14;;;;;;;3.43;2.40;;;15.80;97.30;;;;;;4973339;28;20928;-91
2022/08/29 01:18:44;;;;;;;8.00;2.43;;;15.70;97.30;;;;;;4985562;28;20444;-91
2022/08/29 01:21:38;;;;;;;1.40;1.13;;;15.70;97.30;;;;;;4985630;28;20468;-91
2022/08/29 01:24:29;;;;;;;4.07;3.83;;;15.70;97.30;;;;;;4988381;28;20429;-91
2022/08/29 01:26:54;;;;;;;1.23;1.13;;;15.70;97.30;;;;;;4974328;28;20421;-91
2022/08/29 01:29:20;;;;;;;6.20;1.20;;;15.70;97.30;;;;;;4979094;28;20445;-91
2022/08/29 01:31:48;;;;;;;2.87;2.47;;;15.70;97.30;;;;;;4973139;28;20182;-91
2022/08/29 01:34:15;;;;;;;2.03;1.63;;;15.70;97.30;;;;;;4972852;28;20556;-91
2022/08/29 01:36:52;;;;;;;4.20;2.30;;;15.70;97.30;;;;;;4972556;28;20959;-91
2022/08/29 01:39:19;;;;;;;1.37;1.37;;;15.70;97.30;;;;;;4972554;28;20442;-92
2022/08/29 01:41:44;;;;;;;4.17;1.70;;;15.70;97.30;;;;;;4972717;28;21132;-92
2022/08/29 01:44:13;;;;;;;1.57;1.47;;;15.60;97.30;;;;;;4982521;28;20842;-91
2022/08/29 01:46:39;;;;;;;5.03;1.13;;;15.60;97.30;;;;;;4976613;28;20240;-91
2022/08/29 01:49:06;;;;;;;2.03;1.63;;;15.60;97.30;;;;;;4972917;28;20461;-91
2022/08/29 01:51:33;;;;;;;5.80;1.37;;;15.60;97.30;;;;;;4976804;28;20243;-91
2022/08/29 01:53:58;;;;;;;2.80;2.60;;;15.60;97.30;;;;;;4981708;28;20856;-92
2022/08/29 01:56:30;;;;;;;3.53;3.40;;;15.50;97.30;;;;;;4988529;28;20437;-91
2022/08/29 01:58:58;;;;;;;3.43;1.70;;;15.50;97.30;;;;;;4974542;28;20233;-92
2022/08/29 02:01:28;;;;;;;1.37;1.30;;;15.40;97.30;;;;;;4973146;28;20501;-91
2022/08/29 02:03:54;;;;;;;1.53;1.43;;;15.30;97.30;;;;;;4989256;28;20471;-91
2022/08/29 02:06:20;;;;;;;2.50;1.87;;;15.20;97.30;;;;;;4975324;28;20449;-91
2022/08/29 02:08:46;;;;;;;1.87;1.53;;;15.20;97.30;;;;;;4984247;28;20251;-92
2022/08/29 02:11:14;;;;;;;5.17;1.80;;;15.20;97.30;;;;;;4974754;28;20449;-91
2022/08/29 02:13:45;;;;;;;2.80;1.80;;;15.10;97.30;;;;;;4973034;28;20472;-91
2022/08/29 02:16:11;;;;;;;2.73;2.10;;;15.10;97.30;;;;;;4974524;28;20442;-91
2022/08/29 02:18:38;;;;;;;8.73;1.97;;;15.10;97.30;;;;;;4973590;28;20478;-91
2022/08/29 02:21:04;;;;;;;2.37;1.90;;;15.10;97.30;;;;;;4974522;28;20480;-91
2022/08/29 02:23:32;;;;;;;4.60;1.83;;;15.10;97.30;;;;;;4990380;28;20434;-92
2022/08/29 02:25:58;;;;;;;1.30;1.20;;;15.10;97.30;;;;;;4973422;28;20269;-91
2022/08/29 02:28:23;;;;;;;9.07;1.30;;;15.10;97.30;;;;;;4990564;28;21030;-91
2022/08/29 02:30:51;;;;;;;2.03;1.63;;;15.10;97.30;;;;;;4990434;28;20185;-91
2022/08/29 02:33:18;;;;;;;7.20;2.43;;;15.10;97.30;;;;;;4995703;28;20212;-91
2022/08/29 02:35:44;;;;;;;4.57;2.50;;;15.10;97.30;;;;;;4990233;28;20441;-91
2022/08/29 02:38:10;;;;;;;3.27;2.30;;;15.10;97.30;;;;;;4993659;28;20452;-93
2022/08/29 02:40:36;;;;;;;4.93;2.07;;;15.10;97.30;;;;;;4971022;28;20607;-93
2022/08/29 02:43:03;;;;;;;1.40;1.30;;;15.10;97.30;;;;;;4984490;28;20465;-95
2022/08/29 02:45:29;;;;;;;4.07;1.70;;;15.10;97.30;;;;;;4988545;28;20596;-94
2022/08/29 02:47:55;;;;;;;1.53;1.50;;;15.00;97.30;;;;;;4992827;28;20429;-93
2022/08/29 02:50:21;;;;;;;2.87;1.60;;;15.00;97.30;;;;;;4981217;28;20516;-94
2022/08/29 02:52:46;;;;;;;3.90;1.50;;;15.00;97.30;;;;;;4976813;28;20230;-93
2022/08/29 02:55:15;;;;;;;2.30;1.40;;;15.00;97.30;;;;;;4978579;28;20453;-94
2022/08/29 02:57:42;;;;;;;2.30;1.50;;;15.00;97.30;;;;;;4990021;28;20178;-94
2022/08/29 03:00:11;;;;;;;6.10;2.33;;;15.00;97.30;;;;;;4973137;28;20494;-94
2022/08/29 03:02:38;;;;;;;4.80;1.83;;;15.00;97.30;;;;;;4977100;28;20430;-94
2022/08/29 03:05:04;;;;;;;5.50;2.17;;;15.00;97.30;;;;;;4997490;28;20421;-94
2022/08/29 03:07:30;;;;;;;1.40;1.30;;;15.00;97.30;;;;;;4991912;28;20868;-94
2022/08/29 03:09:55;;;;;;;1.87;1.50;;;15.00;97.30;;;;;;4976750;28;20470;-94
2022/08/29 03:12:21;;;;;;;9.00;3.13;;;15.00;97.30;;;;;;4976722;28;20186;-94
2022/08/29 03:14:46;;;;;;;1.67;1.40;;;15.00;97.30;;;;;;4986040;28;20200;-94
2022/08/29 03:17:12;;;;;;;9.60;2.40;;;15.00;97.30;;;;;;4979025;28;20190;-94
2022/08/29 03:19:38;;;;;;;7.10;1.77;;;14.90;97.30;;;;;;5012990;28;20224;-93
2022/08/29 03:22:04;;;;;;;8.03;1.63;;;14.90;97.30;;;;;;4982340;28;20187;-94
2022/08/29 03:24:29;;;;;;;6.80;2.90;;;14.80;97.30;;;;;;4984591;28;20436;-94
2022/08/29 03:26:55;;;;;;;2.60;1.63;;;14.80;97.30;;;;;;4977838;28;20186;-94
2022/08/29 03:29:20;;;;;;;4.10;2.07;;;14.80;97.30;;;;;;4989785;28;20209;-94
2022/08/29 03:31:46;;;;;;;1.93;1.33;;;14.80;97.30;;;;;;4970807;28;20190;-94
2022/08/29 03:34:13;;;;;;;4.90;2.20;;;14.70;97.30;;;;;;4974305;28;20221;-94
2022/08/29 03:36:39;;;;;;;2.67;1.60;;;14.70;97.30;;;;;;4989270;28;20249;-94
2022/08/29 03:39:05;;;;;;;2.90;2.70;;;14.70;97.30;;;;;;4977085;28;20450;-94
2022/08/29 03:41:31;;;;;;;6.70;1.60;;;14.80;97.30;;;;;;4974003;28;20752;-94
2022/08/29 03:44:00;;;;;;;3.67;1.60;;;14.80;97.30;;;;;;4993516;28;20190;-94
2022/08/29 03:46:26;;;;;;;3.00;2.53;;;14.70;97.30;;;;;;4984907;28;20425;-94
2022/08/29 03:48:52;;;;;;;2.97;1.60;;;14.70;97.30;;;;;;4981371;28;20450;-93
2022/08/29 03:51:18;;;;;;;3.47;2.13;;;14.60;97.30;;;;;;4984946;28;20432;-94
2022/08/29 03:53:44;;;;;;;1.57;1.47;;;14.60;97.30;;;;;;4982539;28;20218;-93
2022/08/29 03:56:11;;;;;;;14.57;2.23;;;14.60;97.30;;;;;;4977378;28;20446;-94
2022/08/29 03:58:36;;;;;;;1.83;1.83;;;14.50;97.30;;;;;;4977654;28;20976;-93
2022/08/29 04:01:02;;;;;;;3.00;1.80;;;14.50;97.30;;;;;;4991183;28;20421;-94
2022/08/29 04:03:28;;;;;;;2.30;1.73;;;14.50;97.30;;;;;;4995836;28;20224;-94
2022/08/29 04:05:53;;;;;;;3.07;1.53;;;14.40;97.30;;;;;;4977763;28;20183;-94
2022/08/29 04:08:19;;;;;;;2.40;2.20;;;14.30;97.30;;;;;;4991128;28;20284;-94
2022/08/29 04:10:45;;;;;;;2.73;2.53;;;14.20;97.30;;;;;;4984493;28;20187;-94
2022/08/29 04:13:11;;;;;;;1.70;1.13;;;14.20;97.30;;;;;;4985213;28;20221;-93
2022/08/29 04:15:39;;;;;;;1.27;1.03;;;14.10;97.30;;;;;;4983911;28;20427;-93
2022/08/29 04:18:07;;;;;;;2.53;1.47;;;14.10;97.30;;;;;;4983844;28;20457;-93
2022/08/29 04:20:37;;;;;;;1.47;1.33;;;14.00;97.30;;;;;;4979723;28;20416;-94
2022/08/29 04:23:03;;;;;;;1.77;1.70;;;14.00;97.30;;;;;;4965384;28;20434;-93
2022/08/29 04:25:35;;;;;;;3.30;1.97;;;14.00;97.30;;;;;;4973666;28;20451;-94
2022/08/29 04:28:02;;;;;;;2.63;2.50;;;13.90;97.30;;;;;;4984895;28;20452;-94
2022/08/29 04:30:31;;;;;;;2.60;1.47;;;13.80;97.30;;;;;;4988838;28;20541;-93
2022/08/29 04:32:57;;;;;;;2.23;1.30;;;13.80;97.30;;;;;;4995393;28;20472;-93
2022/08/29 04:35:23;;;;;;;2.03;1.57;;;13.80;97.30;;;;;;4971033;28;20414;-94
2022/08/29 04:37:49;;;;;;;13.63;2.07;;;13.80;97.30;;;;;;4977774;28;20186;-94
2022/08/29 04:40:18;;;;;;;1.77;1.63;;;13.80;97.30;;;;;;4980638;28;20463;-93
2022/08/29 04:42:45;;;;;;;2.60;1.80;;;13.80;97.30;;;;;;4991376;28;20517;-93
2022/08/29 04:45:13;;;;;;;2.03;1.90;;;13.80;97.30;;;;;;4979207;28;20436;-93
2022/08/29 04:47:40;;;;;;;3.47;1.37;;;13.80;97.30;;;;;;4978771;28;20460;-93
2022/08/29 04:50:08;;;;;;;1.50;1.40;;;13.80;97.30;;;;;;4984735;28;20512;-93
2022/08/29 04:52:35;;;;;;;2.20;1.90;;;13.80;97.30;;;;;;4986585;28;20426;-93
2022/08/29 04:55:00;;;;;;;4.60;1.50;;;13.80;97.30;;;;;;4970918;28;20431;-94
2022/08/29 04:57:26;;;;;;;2.90;2.27;;;13.80;97.30;;;;;;4982336;28;20426;-93
2022/08/29 04:59:57;;;;;;;3.90;2.77;;;13.80;97.30;;;;;;4984539;28;20205;-93
2022/08/29 05:05:06;;;;;;;9.57;1.77;;;13.90;97.30;;;;;;4987854;28;21010;-86
2022/08/29 05:07:31;;;;;;;3.53;2.97;;;14.00;97.30;;;;;;4978099;28;20739;-87
2022/08/29 05:10:00;;;;;;;5.87;2.20;;;14.00;97.30;;;;;;4991820;28;20800;-87
2022/08/29 05:12:29;;;;;;;3.37;2.80;;;14.00;97.30;;;;;;5000201;28;20185;-87
2022/08/29 05:14:55;;;;;;;1.50;1.43;;;13.90;97.30;;;;;;4997195;28;20453;-87
2022/08/29 05:17:22;;;;;;;2.57;1.67;;;13.90;97.30;;;;;;5006301;28;20433;-88
2022/08/29 05:19:48;;;;;;;1.63;1.50;;;13.90;97.30;;;;;;4998495;28;20434;-87
2022/08/29 05:22:14;;;;;;;1.40;1.27;;;13.90;97.30;;;;;;4992733;28;20899;-86
2022/08/29 05:24:39;;;;;;;3.13;1.40;;;13.90;97.30;;;;;;5002393;28;20447;-87
2022/08/29 05:27:14;;;;;;;3.77;2.70;;;13.90;97.30;;;;;;5009854;28;20440;-87
2022/08/29 05:29:41;;;;;;;2.40;1.43;;;13.90;97.30;;;;;;5003759;28;20228;-88
2022/08/29 05:32:09;;;;;;;2.43;1.93;;;13.90;97.30;;;;;;4991040;28;20424;-87
2022/08/29 05:34:35;;;;;;;2.63;2.47;;;13.90;97.30;;;;;;5004167;28;20468;-86
2022/08/29 05:37:07;;;;;;;2.90;1.77;;;13.90;97.30;;;;;;4983289;28;20519;-87
2022/08/29 05:39:34;;;;;;;4.83;2.80;;;13.90;97.30;;;;;;4997095;28;20433;-87
2022/08/29 05:42:01;;;;;;;2.77;2.57;;;13.90;97.30;;;;;;4999751;28;20458;-87
2022/08/29 05:44:28;;;;;;;9.13;3.63;;;13.90;97.30;;;;;;4990967;28;20451;-87
2022/08/29 05:46:54;;;;;;;10.70;2.87;;;13.90;97.30;;;;;;4995633;28;20425;-87
2022/08/29 05:49:20;;;;;;;3.27;2.27;;;13.90;97.30;;;;;;4986369;28;20546;-87
2022/08/29 05:51:46;;;;;;;4.53;1.90;;;13.90;97.30;;;;;;4984826;28;20186;-86
2022/08/29 05:54:12;;;;;;;9.97;1.70;;;14.00;97.30;;;;;;5002928;28;20468;-87
2022/08/29 05:56:38;;;;;;;5.37;1.90;;;14.00;97.30;;;;;;5002627;28;20527;-87
2022/08/29 05:59:04;;;;;;;5.07;2.47;;;14.00;97.30;;;;;;4980190;28;20513;-88
2022/08/29 06:01:32;;;;;;;2.10;1.93;;;14.10;97.30;;;;;;5005321;28;20264;-87
2022/08/29 06:03:59;;;;;;;2.43;2.10;;;14.10;97.30;;;;;;4998702;28;20240;-88
2022/08/29 06:06:26;;;;;;;4.10;2.17;;;14.20;97.30;;;;;;4984400;28;20421;-87
2022/08/29 06:08:53;;;;;;;3.43;1.53;;;14.20;97.30;;;;;;4999169;28;20423;-88
2022/08/29 06:11:22;;;;;;;5.70;3.40;;;14.30;97.30;;;;;;5010208;28;21032;-87
2022/08/29 06:13:48;;;;;;;3.27;2.87;;;14.30;97.30;;;;;;5010445;28;20436;-87
2022/08/29 06:16:17;;;;;;;4.40;2.20;;;14.40;97.30;;;;;;4999713;28;20413;-87
2022/08/29 06:18:43;;;;;;;4.87;2.40;;;14.40;97.30;;;;;;5010303;28;20679;-87
2022/08/29 06:21:10;;;;;;;2.53;1.87;;;14.50;97.30;;;;;;5010153;28;20447;-87
2022/08/29 06:23:37;;;;;;;8.43;2.23;;;14.50;97.30;;;;;;5009550;28;20615;-87
2022/08/29 06:26:04;;;;;;;2.50;1.70;;;14.60;97.30;;;;;;5009199;28;20510;-89
2022/08/29 06:28:30;;;;;;;1.77;1.60;;;14.60;97.30;;;;;;5001662;28;20421;-87
2022/08/29 06:31:03;;;;;;;6.10;2.13;;;14.70;97.30;;;;;;5003598;28;20494;-87
2022/08/29 06:33:29;;;;;;;1.70;1.60;;;14.80;97.30;;;;;;5000736;28;20444;-87
2022/08/29 06:35:54;;;;;;;2.20;1.50;;;14.90;97.30;;;;;;5008204;28;20847;-87
2022/08/29 06:38:20;;;;;;;28.07;2.47;;;14.90;97.30;;;;;;5009669;28;20312;-88
2022/08/29 06:40:45;;;;;;;3.37;2.33;;;15.00;97.30;;;;;;5009677;28;20185;-87
2022/08/29 06:43:11;;;;;;;26.27;1.47;;;15.10;97.30;;;;;;5016326;28;20213;-87
2022/08/29 06:45:43;;;;;;;16.43;2.90;;;15.20;97.30;;;;;;5007180;28;20169;-87
2022/08/29 06:48:09;;;;;;;1.97;1.30;;;15.20;97.30;;;;;;5008837;28;20180;-87
2022/08/29 06:50:36;;;;;;;2.17;2.00;;;15.30;97.30;;;;;;5005885;28;20425;-87
2022/08/29 06:53:02;;;;;;;1.63;1.53;;;15.40;97.30;;;;;;4990457;28;20964;-87
2022/08/29 06:55:28;;;;;;;5.47;2.87;;;15.40;97.30;;;;;;4996661;28;20452;-88
2022/08/29 06:57:53;;;;;;;2.30;1.57;;;15.50;97.30;;;;;;5000374;28;20483;-87
2022/08/29 07:00:20;;;;;;;3.20;1.67;;;15.60;97.30;;;;;;4992164;28;20186;-88
2022/08/29 07:02:46;;;;;;;2.63;2.40;;;15.70;97.30;;;;;;5001532;28;20208;-87
2022/08/29 07:05:14;;;;;;;1.30;1.20;;;15.70;97.30;;;;;;5007850;28;20481;-87
2022/08/29 07:07:40;;;;;;;4.27;2.57;;;15.80;97.30;;;;;;5008110;28;20420;-87
2022/08/29 07:10:06;;;;;;;2.40;1.77;;;15.90;97.30;;;;;;4996717;28;20405;-88
2022/08/29 07:12:32;;;;;;;1.50;1.40;;;16.00;97.30;;;;;;4997867;28;20911;-87
2022/08/29 07:14:58;;;;;;;4.80;1.60;;;16.10;97.30;;;;;;4993206;28;20499;-87
2022/08/29 07:17:23;;;;;;;1.97;1.27;;;16.20;97.30;;;;;;4990401;28;20186;-87
2022/08/29 07:19:48;;;;;;;2.30;1.40;;;16.30;97.30;;;;;;4994550;28;20201;-87
2022/08/29 07:22:14;;;;;;;2.23;1.87;;;16.30;97.30;;;;;;4994098;28;20186;-86
2022/08/29 07:24:39;;;;;;;2.53;1.53;;;16.40;97.30;;;;;;4997470;28;20296;-87
2022/08/29 07:27:05;;;;;;;1.30;1.20;;;16.40;97.30;;;;;;5010007;28;20617;-86
2022/08/29 07:29:30;;;;;;;2.90;2.03;;;16.50;97.30;;;;;;5009332;28;20182;-86
2022/08/29 07:31:56;;;;;;;1.60;1.47;;;16.60;97.30;;;;;;5004216;28;20185;-87
2022/08/29 07:34:21;;;;;;;2.27;1.13;;;16.70;97.30;;;;;;5001079;28;20201;-88
2022/08/29 07:36:47;;;;;;;2.10;1.83;;;16.80;97.30;;;;;;5002401;28;20197;-87
2022/08/29 07:39:16;;;;;;;2.50;2.30;;;17.00;97.30;;;;;;4995859;28;20181;-87
2022/08/29 07:41:43;;;;;;;4.60;2.10;;;17.00;97.30;;;;;;5013967;28;20208;-87
2022/08/29 07:44:10;;;;;;;1.60;1.50;;;17.10;97.30;;;;;;5007718;28;20463;-87
2022/08/29 07:46:37;;;;;;;1.87;1.30;;;17.10;97.30;;;;;;4994212;28;20950;-88
2022/08/29 07:49:03;;;;;;;2.07;1.33;;;17.20;97.30;;;;;;4999658;28;20420;-88
2022/08/29 07:51:29;;;;;;;1.63;1.53;;;17.30;97.30;;;;;;5012555;28;20436;-87
2022/08/29 07:53:55;;;;;;;2.30;1.73;;;17.30;97.30;;;;;;4999424;28;20444;-88
2022/08/29 07:56:31;;;;;;;4.10;1.67;;;17.40;97.30;;;;;;5001609;28;20429;-86
2022/08/29 07:58:57;;;;;;;4.13;2.03;;;17.50;97.30;;;;;;5006233;28;20515;-88
2022/08/29 08:01:24;;;;;;;1.50;1.50;;;17.50;97.30;;;;;;5012783;28;20467;-88
2022/08/29 08:03:50;;;;;;;5.13;2.10;;;17.70;97.30;;;;;;5009832;28;20476;-87
2022/08/29 08:06:17;;;;;;;2.73;1.30;;;17.70;96.80;;;;;;4992862;28;20504;-87
2022/08/29 08:08:42;;;;;;;3.33;1.63;;;17.80;96.30;;;;;;4994239;28;20431;-86
2022/08/29 08:11:08;;;;;;;1.47;1.10;;;17.80;95.80;;;;;;5012379;28;20987;-88
2022/08/29 08:13:36;;;;;;;4.23;2.00;;;17.90;95.50;;;;;;4987987;28;20624;-86
2022/08/29 08:16:07;;;;;;;3.43;1.60;;;17.90;95.50;;;;;;4985332;28;20802;-86
2022/08/29 08:18:36;;;;;;;1.60;1.30;;;18.00;95.20;;;;;;5005591;28;20871;-87
2022/08/29 08:21:01;;;;;;;3.67;3.23;;;18.10;95.50;;;;;;4992727;28;20955;-87
2022/08/29 08:23:27;;;;;;;1.03;0.93;;;18.10;95.20;;;;;;5011997;28;20498;-87
2022/08/29 08:25:52;;;;;;;1.83;1.20;;;18.20;94.90;;;;;;5011876;28;20177;-87
2022/08/29 08:28:18;;;;;;;3.90;2.03;;;18.20;94.80;;;;;;5005918;28;20243;-87
2022/08/29 08:30:44;;;;;;;1.27;1.17;;;18.30;94.80;;;;;;4991720;28;20652;-86
2022/08/29 08:33:09;;;;;;;1.10;1.00;;;18.30;94.70;;;;;;4980891;28;20214;-87
2022/08/29 08:35:37;;;;;;;5.30;2.23;;;18.40;95.00;;;;;;4993728;28;20421;-87
2022/08/29 08:38:03;;;;;;;11.97;2.50;;;18.50;94.40;;;;;;4987475;28;20177;-87
2022/08/29 08:40:30;;;;;;;1.33;1.23;;;18.60;94.40;;;;;;4999543;28;20432;-86
2022/08/29 08:43:00;;;;;;;2.20;2.10;;;18.70;93.70;;;;;;5028156;28;20459;-85
2022/08/29 08:45:41;;;;;;;1.10;1.10;;;18.80;93.80;;;;;;4999589;28;20502;-87
2022/08/29 08:48:20;;;;;;;1.17;1.03;;;18.90;93.80;;;;;;4994330;28;20418;-86
2022/08/29 08:50:53;;;;;;;3.20;1.20;;;18.90;93.40;;;;;;5011211;28;20466;-87
2022/08/29 08:53:32;;;;;;;1.47;1.33;;;19.00;93.40;;;;;;5004773;28;20448;-86
2022/08/29 08:56:00;;;;;;;3.57;1.60;;;18.90;92.90;;;;;;4995767;28;20794;-86
2022/08/29 08:58:37;;;;;;;2.80;2.60;;;18.90;92.90;;;;;;4994595;28;20421;-87
2022/08/29 09:01:18;;;;;;;1.47;1.30;;;18.90;92.50;;;;;;5004785;28;20430;-88
2022/08/29 09:04:09;;;;;;;2.90;1.33;;;18.90;92.50;;;;;;5011120;28;20480;-86
2022/08/29 09:06:54;;;;;;;2.00;1.73;;;19.00;93.00;;;;;;5027616;28;20494;-87
2022/08/29 09:09:40;;;;;;;2.13;1.77;;;19.20;92.70;;;;;;4997246;28;20951;-88
2022/08/29 09:12:37;;;;;;;3.80;1.77;;;19.20;92.60;;;;;;4991740;28;20472;-87
2022/08/29 09:15:08;;;;;;;1.83;1.20;;;19.30;92.60;;;;;;4991908;28;20786;-86
2022/08/29 09:17:40;;;;;;;1.10;1.00;;;19.20;91.80;;;;;;4993196;28;20428;-89
2022/08/29 09:20:10;;;;;;;1.47;1.40;;;19.30;92.70;;;;;;5004468;28;20417;-88
2022/08/29 09:22:39;;;;;;;2.80;1.50;;;19.30;91.80;;;;;;5008182;28;20789;-88
2022/08/29 09:25:07;;;;;;;1.83;1.67;;;19.40;91.70;;;;;;5003599;28;20427;-88
2022/08/29 09:27:34;;;;;;;2.33;1.60;;;19.40;91.90;;;;;;5004609;28;20419;-87
2022/08/29 09:30:08;;;;;;;2.80;2.23;;;19.40;92.40;;;;;;5000687;28;20828;-86
2022/08/29 09:32:50;;;;;;;2.20;1.00;;;19.40;92.40;;;;;;5009234;28;20444;-87
2022/08/29 09:35:23;;;;;;;4.13;1.33;;;19.40;92.80;;;;;;4991838;28;20421;-87
2022/08/29 09:37:58;;;;;;;11.47;1.30;;;19.50;93.00;;;;;;4997363;28;20408;-87
2022/08/29 09:40:49;;;;;;;2.40;1.30;;;19.60;92.90;;;;;;4997164;28;20421;-87
2022/08/29 09:43:37;;;;;;;1.50;1.40;;;19.70;92.30;;;;;;5001802;28;20997;-85
2022/08/29 09:46:15;;;;;;;1.23;1.13;;;19.80;92.00;;;;;;4979173;28;20423;-86
2022/08/29 09:49:19;;;;;;;1.97;1.87;;;19.90;92.00;;;;;;5004207;28;20474;-86
2022/08/29 09:51:47;;;;;;;1.30;1.20;;;20.10;91.80;;;;;;4989725;28;20424;-88
2022/08/29 09:54:21;;;;;;;3.83;1.87;;;20.20;91.50;;;;;;4981267;28;21012;-87
2022/08/29 09:57:07;;;;;;;0.90;0.83;;;20.30;90.90;;;;;;5003784;28;20412;-88
2022/08/29 09:59:39;;;;;;;2.97;2.33;;;20.40;90.70;;;;;;5011408;28;20419;-87
2022/08/29 10:02:26;;;;;;;5.17;1.50;;;20.40;90.90;;;;;;4993165;28;20405;-87
2022/08/29 10:05:00;;;;;;;1.93;1.83;;;20.50;90.30;;;;;;4986920;28;20480;-86
2022/08/29 10:07:36;;;;;;;1.27;1.20;;;20.50;90.60;;;;;;4983097;28;20677;-87
2022/08/29 10:10:21;;;;;;;6.83;2.17;;;20.50;90.20;;;;;;5007032;28;20439;-87
2022/08/29 10:12:58;;;;;;;8.00;2.33;;;20.50;89.90;;;;;;5007194;28;20464;-87
2022/08/29 10:15:37;;;;;;;1.50;1.40;;;20.60;90.40;;;;;;4979715;28;20420;-88
2022/08/29 10:18:44;;;;;;;1.87;1.57;;;20.60;89.40;;;;;;4997542;28;20429;-87
2022/08/29 10:21:11;;;;;;;1.40;1.30;;;20.60;89.40;;;;;;4986211;28;20606;-86
2022/08/29 10:24:08;;;;;;;1.20;0.97;;;20.70;89.90;;;;;;5010595;28;20467;-87
2022/08/29 10:26:43;;;;;;;1.43;1.27;;;20.70;90.00;;;;;;5013087;28;20441;-86
2022/08/29 10:29:35;;;;;;;1.03;1.00;;;20.80;88.90;;;;;;5009243;28;20479;-87
2022/08/29 10:32:39;;;;;;;2.13;1.60;;;20.80;89.40;;;;;;5016486;28;20775;-86
2022/08/29 10:35:39;;;;;;;1.10;1.00;;;20.90;89.60;;;;;;4994111;28;20415;-86
2022/08/29 10:38:11;;;;;;;0.80;0.80;;;21.00;90.70;;;;;;5001374;28;20417;-88
2022/08/29 10:40:56;;;;;;;1.50;1.40;;;21.10;89.00;;;;;;5003241;28;20845;-87
2022/08/29 10:43:42;;;;;;;1.10;1.00;;;21.10;88.40;;;;;;4996674;28;20739;-86
2022/08/29 10:46:16;;;;;;;1.17;1.10;;;21.10;88.10;;;;;;4995674;28;20428;-86
2022/08/29 10:48:48;;;;;;;3.23;1.63;;;21.10;88.70;;;;;;4996343;28;20420;-87
2022/08/29 10:51:35;;;;;;;1.93;1.67;;;21.10;89.10;;;;;;5004104;28;20439;-87
2022/08/29 10:54:25;;;;;;;1.70;1.63;;;21.10;89.80;;;;;;5007097;28;20506;-87
2022/08/29 10:56:53;;;;;;;2.90;1.10;;;21.20;90.90;;;;;;5004833;28;20445;-86
2022/08/29 11:00:03;;;;;;;1.00;1.00;;;21.40;90.30;;;;;;5008045;28;20916;-86
2022/08/29 11:02:37;;;;;;;1.20;1.10;;;21.50;89.00;;;;;;4997329;28;20417;-87
2022/08/29 11:07:49;;;;;;;1.60;1.50;;;21.70;90.10;;;;;;4975331;28;20466;-90
2022/08/29 11:10:23;;;;;;;1.37;1.37;;;21.70;88.50;;;;;;4976159;28;20417;-90
2022/08/29 11:13:05;;;;;;;1.63;1.27;;;21.50;88.10;;;;;;4992709;28;20508;-90
2022/08/29 11:15:42;;;;;;;1.30;1.30;;;21.50;89.00;;;;;;4978176;28;20446;-89
2022/08/29 11:18:27;;;;;;;1.10;1.00;;;21.60;88.70;;;;;;4957026;28;20440;-91
2022/08/29 11:20:59;;;;;;;6.13;1.20;;;21.60;88.60;;;;;;4957140;29;20790;-90
2022/08/29 11:23:37;;;;;;;1.10;1.00;;;21.70;89.60;;;;;;4958267;28;20462;-92
2022/08/29 11:26:10;;;;;;;3.07;1.60;;;21.70;88.80;;;;;;4990005;28;20533;-91
2022/08/29 11:28:56;;;;;;;0.90;0.90;;;21.80;88.50;;;;;;5005199;28;20426;-93
2022/08/29 11:32:06;;;;;;;2.23;1.30;;;21.90;87.80;;;;;;5012578;28;20425;-93
2022/08/29 11:35:02;;;;;;;1.20;1.10;;;22.00;88.30;;;;;;4984019;28;20462;-89
2022/08/29 11:37:55;;;;;;;1.40;1.27;;;22.10;88.60;;;;;;4957561;29;20518;-90
2022/08/29 11:40:48;;;;;;;1.10;1.00;;;22.20;88.70;;;;;;4984354;28;20915;-90
2022/08/29 11:43:18;;;;;;;1.17;1.10;;;22.20;88.00;;;;;;4956528;28;20976;-90
2022/08/29 11:45:56;;;;;;;9.23;2.40;;;22.20;88.10;;;;;;4956356;29;20961;-90
2022/08/29 11:49:11;;;;;;;1.10;1.00;;;22.30;88.30;;;;;;4956209;28;20527;-89
2022/08/29 11:51:39;;;;;;;1.97;1.30;;;22.40;87.10;;;;;;4954135;29;20482;-90
2022/08/29 11:54:23;;;;;;;6.13;2.20;;;22.40;87.30;;;;;;4988770;28;20423;-91
2022/08/29 11:57:01;;;;;;;6.03;1.20;;;22.50;87.90;;;;;;4989149;28;20769;-91
2022/08/29 11:59:47;;;;;;;1.97;1.50;;;22.50;87.70;;;;;;4958126;28;20427;-90
2022/08/29 12:02:28;;;;;;;1.17;1.07;;;22.60;87.90;;;;;;4978505;28;20430;-90
2022/08/29 12:04:58;;;;;;;1.43;1.33;;;22.60;88.70;;;;;;4983320;28;20459;-90
2022/08/29 12:08:00;;;;;;;1.10;1.00;;;22.70;88.60;;;;;;4972707;28;20906;-90
2022/08/29 12:10:30;;;;;;;1.70;1.20;;;22.80;87.90;;;;;;4956617;28;20622;-90
2022/08/29 12:13:01;;;;;;;1.23;1.10;;;22.80;87.80;;;;;;4955626;29;20430;-92
2022/08/29 12:15:33;;;;;;;1.60;1.20;;;22.80;87.70;;;;;;4988391;28;20442;-90
2022/08/29 12:17:59;;;;;;;1.93;1.33;;;22.80;87.30;;;;;;4956375;29;20425;-91
2022/08/29 12:20:45;;;;;;;2.07;1.50;;;22.80;86.70;;;;;;4955878;28;20425;-93
2022/08/29 12:23:11;;;;;;;1.43;1.20;;;22.80;87.30;;;;;;4955882;28;20480;-90
2022/08/29 12:25:44;;;;;;;1.20;1.10;;;22.80;86.60;;;;;;4957323;28;20464;-90
2022/08/29 12:28:16;;;;;;;2.10;1.47;;;22.90;86.90;;;;;;4988946;28;20435;-90
2022/08/29 12:30:56;;;;;;;6.87;1.73;;;22.90;88.60;;;;;;4984437;28;20438;-91
2022/08/29 12:33:41;;;;;;;2.50;1.20;;;23.00;88.20;;;;;;4956053;29;20419;-90
2022/08/29 12:36:27;;;;;;;1.43;1.10;;;23.00;89.40;;;;;;4986521;28;21040;-91
2022/08/29 12:39:02;;;;;;;1.17;1.10;;;23.10;87.70;;;;;;4982837;28;20842;-90
2022/08/29 12:41:55;;;;;;;4.83;1.20;;;23.20;88.30;;;;;;4955227;29;20909;-93
2022/08/29 12:44:26;;;;;;;2.10;1.70;;;23.30;86.40;;;;;;4984540;28;20562;-91
2022/08/29 12:46:59;;;;;;;1.57;1.13;;;23.30;87.20;;;;;;4955743;28;20419;-92
2022/08/29 12:49:32;;;;;;;1.13;1.10;;;23.30;86.70;;;;;;4953197;28;20427;-92
2022/08/29 12:52:05;;;;;;;1.87;1.53;;;23.30;87.40;;;;;;4984782;28;20400;-89
2022/08/29 12:54:42;;;;;;;2.40;1.43;;;23.30;87.20;;;;;;4955979;28;20438;-89
2022/08/29 12:57:30;;;;;;;3.17;1.53;;;23.30;86.90;;;;;;4971698;28;20788;-92
2022/08/29 13:00:12;;;;;;;1.10;1.00;;;23.20;86.40;;;;;;4957409;28;20419;-90
2022/08/29 13:03:35;;;;;;;2.50;1.47;;;23.20;87.40;;;;;;4954752;29;20420;-91
2022/08/29 13:06:22;;;;;;;1.10;1.10;;;23.30;87.40;;;;;;4953055;28;20467;-91
2022/08/29 13:08:50;;;;;;;2.63;2.33;;;23.30;86.00;;;;;;4978907;28;20411;-91
2022/08/29 13:11:32;;;;;;;2.57;1.40;;;23.40;86.20;;;;;;4971858;29;20419;-93
2022/08/29 13:14:10;;;;;;;1.50;1.40;;;23.50;87.90;;;;;;4973399;28;20441;-95
2022/08/29 13:16:40;;;;;;;2.30;1.50;;;23.70;86.20;;;;;;4986415;28;20422;-91